Time;durP1;ratioP1;P1;durP2;ratioP2;P2;SDS_P1;SDS_P2;PMS_P1;PMS_P2;Temp;Humidity;BMP_temperature;BMP_pressure;BME280_temperature;BME280_humidity;BME280_pressure;Samples;Min_cycle;Max_cycle;Signal;HPM_P1;HPM_P2
2022/10/29 00:00:43;;;;;;;0.20;0.20;;;14.80;99.90;;;;;;5088717;28;20391;-73
2022/10/29 00:03:09;;;;;;;0.20;0.20;;;14.80;99.90;;;;;;5088902;28;20101;-72
2022/10/29 00:05:35;;;;;;;0.20;0.20;;;14.80;99.90;;;;;;5088606;28;20032;-72
2022/10/29 00:08:01;;;;;;;0.20;0.20;;;14.80;99.90;;;;;;5087065;28;20472;-73
2022/10/29 00:10:27;;;;;;;0.20;0.20;;;14.80;99.90;;;;;;5089926;28;20079;-72
2022/10/29 00:12:53;;;;;;;0.20;0.20;;;14.70;99.90;;;;;;5090906;28;20032;-73
2022/10/29 00:15:18;;;;;;;0.20;0.20;;;14.70;99.90;;;;;;5081085;28;20032;-73
2022/10/29 00:17:44;;;;;;;0.20;0.20;;;14.60;99.90;;;;;;5075528;28;20047;-72
2022/10/29 00:20:10;;;;;;;0.20;0.20;;;14.80;99.90;;;;;;5079140;28;20090;-73
2022/10/29 00:22:36;;;;;;;0.20;0.20;;;14.60;99.90;;;;;;5080488;28;20036;-73
2022/10/29 00:25:01;;;;;;;0.10;0.10;;;14.60;99.90;;;;;;5075850;28;20109;-73
2022/10/29 00:27:27;;;;;;;0.20;0.20;;;14.50;99.90;;;;;;5088056;28;20056;-72
2022/10/29 00:29:54;;;;;;;0.13;0.13;;;14.50;99.90;;;;;;5083229;28;20055;-72
2022/10/29 00:32:20;;;;;;;0.10;0.10;;;14.40;99.90;;;;;;5089609;28;20038;-72
2022/10/29 00:34:45;;;;;;;0.10;0.10;;;14.40;99.90;;;;;;5095992;28;20044;-72
2022/10/29 00:37:11;;;;;;;0.20;0.20;;;14.40;99.90;;;;;;5091068;28;20044;-72
2022/10/29 00:39:37;;;;;;;0.20;0.20;;;14.30;99.90;;;;;;5079082;28;20036;-72
2022/10/29 00:42:03;;;;;;;0.20;0.20;;;14.30;99.90;;;;;;5087706;28;20391;-72
2022/10/29 00:44:37;;;;;;;0.22;0.22;;;14.20;99.90;;;;;;5089834;28;20048;-73
2022/10/29 00:47:09;;;;;;;0.20;0.20;;;14.30;99.90;;;;;;5082729;28;20086;-72
2022/10/29 00:49:35;;;;;;;0.20;0.20;;;14.20;99.90;;;;;;5082256;28;20044;-72
2022/10/29 00:52:03;;;;;;;0.20;0.20;;;14.20;99.90;;;;;;5086559;28;20037;-73
2022/10/29 00:54:33;;;;;;;0.20;0.20;;;14.10;99.90;;;;;;5075135;28;20184;-72
2022/10/29 00:57:05;;;;;;;0.20;0.20;;;14.20;99.90;;;;;;5081096;28;20123;-73
2022/10/29 00:59:31;;;;;;;0.20;0.20;;;14.10;99.90;;;;;;5089072;28;20115;-73
2022/10/29 01:01:57;;;;;;;0.20;0.20;;;14.00;99.90;;;;;;5087659;28;20146;-73
2022/10/29 01:04:23;;;;;;;0.10;0.10;;;14.00;99.90;;;;;;5087762;28;20138;-73
2022/10/29 01:06:50;;;;;;;0.20;0.20;;;14.00;99.90;;;;;;5082451;28;20077;-72
2022/10/29 01:09:16;;;;;;;0.10;0.10;;;14.00;99.90;;;;;;5069057;28;20552;-72
2022/10/29 01:12:09;;;;;;;0.10;0.10;;;14.00;99.90;;;;;;5087450;28;20092;-73
2022/10/29 01:15:08;;;;;;;0.20;0.20;;;14.00;99.90;;;;;;5086383;28;20503;-73
2022/10/29 01:17:48;;;;;;;0.20;0.20;;;13.90;99.90;;;;;;5081967;28;20489;-73
2022/10/29 01:20:26;;;;;;;0.20;0.20;;;13.90;99.90;;;;;;5075486;28;20047;-73
2022/10/29 01:23:19;;;;;;;0.20;0.20;;;13.90;99.90;;;;;;5081736;28;20539;-73
2022/10/29 01:26:09;;;;;;;0.13;0.13;;;13.80;99.90;;;;;;5078428;28;20044;-72
2022/10/29 01:28:54;;;;;;;0.20;0.20;;;13.80;99.90;;;;;;5073707;28;20476;-72
2022/10/29 01:31:49;;;;;;;0.20;0.20;;;13.80;99.90;;;;;;5096307;28;20055;-72
2022/10/29 01:34:23;;;;;;;0.20;0.20;;;13.80;99.90;;;;;;5060763;28;20056;-73
2022/10/29 01:36:52;;;;;;;0.20;0.20;;;13.70;99.90;;;;;;5076077;28;20036;-73
2022/10/29 01:39:40;;;;;;;0.20;0.20;;;13.70;99.90;;;;;;5084728;28;20047;-73
2022/10/29 01:42:18;;;;;;;0.10;0.10;;;13.80;99.90;;;;;;5073164;28;20048;-72
2022/10/29 01:44:46;;;;;;;0.20;0.20;;;13.70;99.90;;;;;;5089373;28;20039;-73
2022/10/29 01:47:18;;;;;;;0.20;0.20;;;13.80;99.90;;;;;;5084439;28;20059;-72
2022/10/29 01:49:59;;;;;;;0.17;0.17;;;13.70;99.90;;;;;;5082096;28;20056;-72
2022/10/29 01:52:29;;;;;;;0.20;0.20;;;13.70;99.90;;;;;;5077822;28;20048;-73
2022/10/29 01:54:55;;;;;;;0.20;0.20;;;13.80;99.90;;;;;;5090751;28;20040;-73
2022/10/29 01:57:32;;;;;;;0.20;0.20;;;13.80;99.90;;;;;;5076347;28;20965;-73
2022/10/29 02:00:11;;;;;;;0.20;0.20;;;13.80;99.90;;;;;;5084903;28;20448;-73
2022/10/29 02:03:14;;;;;;;0.20;0.20;;;13.70;99.90;;;;;;5089024;28;20047;-72
2022/10/29 02:05:55;;;;;;;0.10;0.10;;;13.80;99.90;;;;;;5087375;28;20176;-72
2022/10/29 02:08:58;;;;;;;0.20;0.20;;;13.90;99.90;;;;;;5080615;28;20051;-72
2022/10/29 02:11:32;;;;;;;0.20;0.20;;;13.90;99.90;;;;;;5076028;28;20047;-72
2022/10/29 02:14:03;;;;;;;0.20;0.20;;;13.90;99.90;;;;;;5082959;28;20524;-72
2022/10/29 02:16:30;;;;;;;0.20;0.20;;;13.80;99.90;;;;;;5073474;28;20120;-72
2022/10/29 02:18:56;;;;;;;0.20;0.20;;;13.70;99.90;;;;;;5081304;28;20582;-72
2022/10/29 02:21:22;;;;;;;0.20;0.20;;;13.70;99.90;;;;;;5078770;28;20403;-72
2022/10/29 02:23:49;;;;;;;0.20;0.20;;;13.70;99.90;;;;;;5071232;28;20041;-72
2022/10/29 02:26:14;;;;;;;0.20;0.20;;;13.70;99.90;;;;;;5073235;28;20513;-72
2022/10/29 02:28:40;;;;;;;0.20;0.20;;;13.70;99.90;;;;;;5084479;28;20119;-73
2022/10/29 02:31:06;;;;;;;0.15;0.15;;;13.70;99.90;;;;;;5073325;28;20082;-72
2022/10/29 02:33:32;;;;;;;0.10;0.10;;;13.80;99.90;;;;;;5079706;28;20483;-72
2022/10/29 02:35:57;;;;;;;0.20;0.20;;;13.80;99.90;;;;;;5078331;28;20040;-73
2022/10/29 02:38:23;;;;;;;0.10;0.10;;;13.70;99.90;;;;;;5078332;28;20079;-72
2022/10/29 02:40:49;;;;;;;0.10;0.10;;;13.60;99.90;;;;;;5090130;28;20120;-72
2022/10/29 02:43:14;;;;;;;0.20;0.20;;;13.60;99.90;;;;;;5079284;28;20399;-72
2022/10/29 02:45:40;;;;;;;0.20;0.20;;;13.60;99.90;;;;;;5076361;28;20082;-73
2022/10/29 02:48:05;;;;;;;0.20;0.20;;;13.60;99.90;;;;;;5083266;28;20092;-73
2022/10/29 02:50:31;;;;;;;0.20;0.20;;;13.60;99.90;;;;;;5089392;28;20511;-73
2022/10/29 02:52:57;;;;;;;0.20;0.20;;;13.50;99.90;;;;;;5084826;28;20032;-73
2022/10/29 02:55:22;;;;;;;0.20;0.20;;;13.60;99.90;;;;;;5088720;28;20058;-72
2022/10/29 02:57:48;;;;;;;0.10;0.10;;;13.50;99.90;;;;;;5086519;28;20476;-73
2022/10/29 03:00:14;;;;;;;0.20;0.20;;;13.40;99.90;;;;;;5083895;28;20071;-72
2022/10/29 03:02:40;;;;;;;0.10;0.10;;;13.50;99.90;;;;;;5073672;28;20535;-73
2022/10/29 03:05:06;;;;;;;0.20;0.20;;;13.50;99.90;;;;;;5088951;28;20119;-72
2022/10/29 03:07:36;;;;;;;0.10;0.10;;;13.50;99.90;;;;;;5086217;28;20055;-72
2022/10/29 03:10:06;;;;;;;0.10;0.10;;;13.50;99.90;;;;;;5086928;28;20048;-72
2022/10/29 03:12:32;;;;;;;0.17;0.17;;;13.50;99.90;;;;;;5089189;28;20399;-72
2022/10/29 03:14:58;;;;;;;0.20;0.20;;;13.50;99.90;;;;;;5077028;28;20040;-73
2022/10/29 03:17:23;;;;;;;0.20;0.20;;;13.50;99.90;;;;;;5074464;28;20127;-72
2022/10/29 03:19:50;;;;;;;0.20;0.20;;;13.50;99.90;;;;;;5076601;28;20484;-73
2022/10/29 03:22:15;;;;;;;0.10;0.10;;;13.60;99.90;;;;;;5079131;28;20043;-73
2022/10/29 03:24:41;;;;;;;0.10;0.10;;;13.40;99.90;;;;;;5087778;28;20123;-73
2022/10/29 03:27:07;;;;;;;0.17;0.17;;;13.40;99.90;;;;;;5086631;28;20850;-73
2022/10/29 03:29:32;;;;;;;0.20;0.20;;;13.40;99.90;;;;;;5084853;28;20036;-73
2022/10/29 03:31:58;;;;;;;0.20;0.20;;;13.50;99.90;;;;;;5088551;28;20487;-72
2022/10/29 03:34:24;;;;;;;0.20;0.20;;;13.50;99.90;;;;;;5076478;28;20091;-72
2022/10/29 03:36:50;;;;;;;0.20;0.20;;;13.40;99.90;;;;;;5087358;28;20047;-72
2022/10/29 03:39:15;;;;;;;0.20;0.20;;;13.40;99.90;;;;;;5082400;28;20044;-72
2022/10/29 03:41:41;;;;;;;0.10;0.10;;;13.40;99.90;;;;;;5085588;28;20119;-73
2022/10/29 03:44:06;;;;;;;0.20;0.20;;;13.30;99.90;;;;;;5086464;28;20048;-72
2022/10/29 03:46:33;;;;;;;0.10;0.10;;;13.30;99.90;;;;;;5088710;28;20085;-72
2022/10/29 03:48:58;;;;;;;0.10;0.10;;;13.20;99.90;;;;;;5086849;28;20139;-72
2022/10/29 03:51:24;;;;;;;0.10;0.10;;;13.20;99.90;;;;;;5082352;28;20175;-73
2022/10/29 03:53:50;;;;;;;0.10;0.10;;;13.20;99.90;;;;;;5073471;28;20139;-73
2022/10/29 03:56:15;;;;;;;0.20;0.20;;;13.10;99.90;;;;;;5074702;28;20040;-72
2022/10/29 03:58:41;;;;;;;0.20;0.20;;;13.10;99.90;;;;;;5089393;28;20044;-72
2022/10/29 04:01:08;;;;;;;0.17;0.17;;;13.00;99.90;;;;;;5090628;28;20040;-72
2022/10/29 04:03:36;;;;;;;0.10;0.10;;;13.00;99.90;;;;;;5091909;28;20044;-72
2022/10/29 04:06:09;;;;;;;0.10;0.10;;;13.00;99.90;;;;;;5085620;28;20044;-72
2022/10/29 04:08:34;;;;;;;0.10;0.10;;;12.90;99.90;;;;;;5082289;28;20053;-72
2022/10/29 04:11:00;;;;;;;0.10;0.10;;;12.90;99.90;;;;;;5072971;28;20479;-72
2022/10/29 04:13:25;;;;;;;0.10;0.10;;;12.90;99.90;;;;;;5086695;28;20448;-73
2022/10/29 04:15:55;;;;;;;0.20;0.20;;;12.80;99.90;;;;;;5077837;28;20039;-72
2022/10/29 04:18:21;;;;;;;0.10;0.10;;;12.80;99.90;;;;;;5078459;28;20085;-72
2022/10/29 04:20:47;;;;;;;0.20;0.20;;;12.80;99.90;;;;;;5085724;28;20054;-72
2022/10/29 04:23:13;;;;;;;0.20;0.20;;;12.80;99.90;;;;;;5080952;28;20052;-73
2022/10/29 04:25:38;;;;;;;0.10;0.10;;;12.80;99.90;;;;;;5086534;28;20068;-73
2022/10/29 04:28:04;;;;;;;0.20;0.20;;;12.80;99.90;;;;;;5090327;28;20430;-72
2022/10/29 04:30:29;;;;;;;0.20;0.20;;;12.80;99.90;;;;;;5088742;28;20178;-72
2022/10/29 04:32:56;;;;;;;0.15;0.15;;;12.70;99.90;;;;;;5086512;28;20051;-72
2022/10/29 04:35:22;;;;;;;0.20;0.20;;;12.80;99.90;;;;;;5080169;28;20044;-72
2022/10/29 04:37:48;;;;;;;0.20;0.20;;;12.70;99.90;;;;;;5088946;28;20040;-72
2022/10/29 04:40:13;;;;;;;0.20;0.20;;;12.80;99.90;;;;;;5083397;28;20050;-72
2022/10/29 04:42:39;;;;;;;0.20;0.20;;;12.60;99.90;;;;;;5083991;28;20510;-73
2022/10/29 04:45:06;;;;;;;0.20;0.20;;;12.60;99.90;;;;;;5088971;28;20123;-74
2022/10/29 04:47:32;;;;;;;0.20;0.20;;;12.70;99.90;;;;;;5089403;28;20048;-73
2022/10/29 04:49:58;;;;;;;0.15;0.15;;;12.80;99.90;;;;;;5078643;28;20475;-73
2022/10/29 04:52:27;;;;;;;0.10;0.10;;;12.70;99.90;;;;;;5074823;28;20047;-73
2022/10/29 04:54:52;;;;;;;0.10;0.10;;;12.70;99.90;;;;;;5085048;28;20387;-72
2022/10/29 04:57:18;;;;;;;0.10;0.10;;;12.70;99.90;;;;;;5086696;28;20040;-72
2022/10/29 04:59:43;;;;;;;0.13;0.13;;;12.60;99.90;;;;;;5075618;28;20053;-73
2022/10/29 05:02:09;;;;;;;0.20;0.20;;;12.60;99.90;;;;;;5083935;28;20072;-72
2022/10/29 05:04:35;;;;;;;0.20;0.20;;;12.60;99.90;;;;;;5088201;28;20135;-73
2022/10/29 05:07:00;;;;;;;0.20;0.20;;;12.70;99.90;;;;;;5088646;28;20475;-72
2022/10/29 05:09:26;;;;;;;0.17;0.17;;;12.60;99.90;;;;;;5089738;28;20040;-73
2022/10/29 05:11:52;;;;;;;0.20;0.20;;;12.70;99.90;;;;;;5082712;28;20047;-72
2022/10/29 05:14:17;;;;;;;0.10;0.10;;;12.70;99.90;;;;;;5088483;28;20495;-73
2022/10/29 05:16:43;;;;;;;0.10;0.10;;;12.80;99.90;;;;;;5088714;28;20493;-72
2022/10/29 05:19:08;;;;;;;0.15;0.15;;;12.70;99.90;;;;;;5088343;28;20112;-73
2022/10/29 05:21:34;;;;;;;0.20;0.20;;;12.70;99.90;;;;;;5071533;28;20068;-72
2022/10/29 05:24:00;;;;;;;0.20;0.20;;;12.70;99.90;;;;;;5088877;28;20395;-72
2022/10/29 05:26:25;;;;;;;0.20;0.20;;;12.70;99.90;;;;;;5082661;28;20032;-72
2022/10/29 05:28:51;;;;;;;0.20;0.20;;;12.70;99.90;;;;;;5084699;28;20046;-73
2022/10/29 05:31:17;;;;;;;0.17;0.17;;;12.80;99.90;;;;;;5068532;28;20563;-73
2022/10/29 05:33:43;;;;;;;0.10;0.10;;;12.80;99.90;;;;;;5086122;28;20311;-72
2022/10/29 05:36:09;;;;;;;0.10;0.10;;;12.70;99.90;;;;;;5088349;28;20131;-73
2022/10/29 05:38:35;;;;;;;0.20;0.20;;;12.70;99.90;;;;;;5090085;28;20039;-72
2022/10/29 05:41:01;;;;;;;0.20;0.20;;;12.80;99.90;;;;;;5078866;28;20066;-72
2022/10/29 05:43:26;;;;;;;0.10;0.10;;;12.80;99.90;;;;;;5077806;28;20411;-72
2022/10/29 05:45:52;;;;;;;0.20;0.20;;;12.80;99.90;;;;;;5094717;28;20039;-73
2022/10/29 05:48:18;;;;;;;0.10;0.10;;;12.80;99.90;;;;;;5088844;28;20036;-72
2022/10/29 05:50:44;;;;;;;0.20;0.20;;;12.80;99.90;;;;;;5083604;28;20139;-73
2022/10/29 05:53:13;;;;;;;0.20;0.20;;;12.80;99.90;;;;;;5083319;28;20157;-73
2022/10/29 05:55:39;;;;;;;0.10;0.10;;;12.80;99.90;;;;;;5077074;28;20443;-73
2022/10/29 05:58:09;;;;;;;0.10;0.10;;;12.80;99.90;;;;;;5074806;28;20090;-73
2022/10/29 06:00:37;;;;;;;0.20;0.20;;;12.80;99.90;;;;;;5072828;28;20048;-73
2022/10/29 06:03:03;;;;;;;0.13;0.13;;;12.80;99.90;;;;;;5082269;28;20083;-73
2022/10/29 06:05:29;;;;;;;0.10;0.10;;;12.80;99.90;;;;;;5080771;28;20522;-73
2022/10/29 06:07:59;;;;;;;0.20;0.20;;;12.70;99.90;;;;;;5071226;28;20609;-73
2022/10/29 06:10:27;;;;;;;0.10;0.10;;;12.70;99.90;;;;;;5073719;28;20063;-73
2022/10/29 06:12:53;;;;;;;0.20;0.20;;;12.60;99.90;;;;;;5078219;28;20121;-73
2022/10/29 06:15:19;;;;;;;0.10;0.10;;;12.60;99.90;;;;;;5071203;28;20056;-72
2022/10/29 06:17:45;;;;;;;0.10;0.10;;;12.70;99.90;;;;;;5075754;28;20416;-73
2022/10/29 06:20:13;;;;;;;0.15;0.15;;;12.70;99.90;;;;;;5088557;28;20038;-73
2022/10/29 06:22:39;;;;;;;0.20;0.20;;;12.70;99.90;;;;;;5080603;28;20455;-73
2022/10/29 06:25:06;;;;;;;0.13;0.13;;;12.70;99.90;;;;;;5087724;28;20079;-73
2022/10/29 06:27:31;;;;;;;0.15;0.15;;;12.70;99.90;;;;;;5087078;28;20158;-70
2022/10/29 06:29:57;;;;;;;0.10;0.10;;;12.70;99.90;;;;;;5068646;28;20079;-71
2022/10/29 06:32:24;;;;;;;0.10;0.10;;;12.80;99.90;;;;;;5077061;28;20108;-70
2022/10/29 06:34:49;;;;;;;0.10;0.10;;;12.80;99.90;;;;;;5089093;28;20495;-72
2022/10/29 06:37:15;;;;;;;0.20;0.20;;;12.80;99.90;;;;;;5088928;28;20115;-72
2022/10/29 06:39:41;;;;;;;0.20;0.20;;;12.80;99.90;;;;;;5089624;28;20090;-72
2022/10/29 06:42:06;;;;;;;0.20;0.20;;;12.80;99.90;;;;;;5122174;27;20526;-72
2022/10/29 06:44:32;;;;;;;0.13;0.13;;;12.80;99.90;;;;;;5085700;28;20033;-73
2022/10/29 06:46:58;;;;;;;0.15;0.15;;;12.80;99.90;;;;;;5080424;28;20046;-72
2022/10/29 06:49:33;;;;;;;0.10;0.10;;;12.90;99.90;;;;;;5083113;28;20561;-72
2022/10/29 06:51:59;;;;;;;0.20;0.20;;;12.90;99.90;;;;;;5077265;28;20046;-72
2022/10/29 06:54:24;;;;;;;0.20;0.20;;;12.90;99.90;;;;;;5076909;28;20036;-72
2022/10/29 06:56:50;;;;;;;0.20;0.20;;;12.90;99.90;;;;;;5082068;28;20475;-72
2022/10/29 06:59:15;;;;;;;0.20;0.20;;;12.90;99.90;;;;;;5078072;28;20044;-72
2022/10/29 07:01:41;;;;;;;0.20;0.20;;;12.90;99.90;;;;;;5080609;28;20068;-71
2022/10/29 07:04:07;;;;;;;0.10;0.10;;;12.90;99.90;;;;;;5086610;28;20048;-72
2022/10/29 07:06:33;;;;;;;0.20;0.20;;;13.00;99.90;;;;;;5080188;28;20474;-72
2022/10/29 07:08:59;;;;;;;0.10;0.10;;;13.00;99.90;;;;;;5081710;28;20111;-72
2022/10/29 07:11:24;;;;;;;0.20;0.20;;;12.90;99.90;;;;;;5075924;28;20139;-72
2022/10/29 07:13:50;;;;;;;0.20;0.20;;;13.00;99.90;;;;;;5079738;28;20563;-72
2022/10/29 07:16:15;;;;;;;0.20;0.20;;;13.00;99.90;;;;;;5077264;28;20062;-73
2022/10/29 07:18:41;;;;;;;0.10;0.10;;;13.00;99.90;;;;;;5079618;28;20040;-72
2022/10/29 07:21:08;;;;;;;0.20;0.20;;;13.10;99.90;;;;;;5071713;28;20121;-72
2022/10/29 07:23:34;;;;;;;0.20;0.20;;;13.10;99.90;;;;;;5079867;28;20056;-72
2022/10/29 07:26:00;;;;;;;0.20;0.20;;;;;;;;;;5071479;28;20517;-71
2022/10/29 07:28:26;;;;;;;0.15;0.15;;;;;;;;;;5070588;28;20048;-71
2022/10/29 07:30:53;;;;;;;0.20;0.20;;;;;;;;;;5083180;28;20456;-71
2022/10/29 07:33:19;;;;;;;0.10;0.10;;;;;;;;;;5079754;28;20044;-71
2022/10/29 07:35:45;;;;;;;0.20;0.20;;;;;;;;;;5092689;28;20036;-71
2022/10/29 07:38:12;;;;;;;0.17;0.17;;;;;;;;;;5092651;28;20051;-72
2022/10/29 07:40:39;;;;;;;0.20;0.20;;;;;;;;;;5091230;28;20040;-71
2022/10/29 07:43:05;;;;;;;0.17;0.17;;;;;;;;;;5085044;28;20039;-71
2022/10/29 07:45:32;;;;;;;0.10;0.10;;;;;;;;;;5087040;28;20044;-71
2022/10/29 07:48:02;;;;;;;0.20;0.20;;;;;;;;;;5090175;28;20450;-71
2022/10/29 07:50:29;;;;;;;0.17;0.17;;;;;;;;;;5078763;28;20048;-70
2022/10/29 07:52:55;;;;;;;0.15;0.15;;;;;;;;;;5072290;28;20071;-71
2022/10/29 07:55:21;;;;;;;0.10;0.10;;;;;;;;;;5073374;28;20076;-71
2022/10/29 07:57:47;;;;;;;0.20;0.20;;;;;;;;;;5078923;28;20043;-71
2022/10/29 08:00:13;;;;;;;0.10;0.10;;;;;;;;;;5084228;28;20700;-71
2022/10/29 08:02:41;;;;;;;0.20;0.20;;;;;;;;;;5086247;28;20398;-72
2022/10/29 08:05:07;;;;;;;0.20;0.20;;;;;;;;;;5083949;28;20037;-71
2022/10/29 08:07:33;;;;;;;0.17;0.17;;;;;;;;;;5078557;28;20059;-71
2022/10/29 08:09:59;;;;;;;0.20;0.20;;;;;;;;;;5076257;28;20040;-71
2022/10/29 08:12:25;;;;;;;0.20;0.20;;;;;;;;;;5088233;28;20883;-71
2022/10/29 08:14:51;;;;;;;0.10;0.10;;;;;;;;;;5077741;28;20036;-71
2022/10/29 08:17:17;;;;;;;0.10;0.10;;;;;;;;;;5079117;28;20085;-71
2022/10/29 08:19:44;;;;;;;0.20;0.20;;;;;;;;;;5079950;28;20043;-71
2022/10/29 08:22:10;;;;;;;0.20;0.20;;;;;;;;;;5083851;28;20036;-70
2022/10/29 08:24:36;;;;;;;0.20;0.20;;;;;;;;;;5079263;28;20690;-71
2022/10/29 08:27:02;;;;;;;0.20;0.20;;;;;;;;;;5081280;28;20056;-71
2022/10/29 08:29:28;;;;;;;0.20;0.20;;;;;;;;;;5081304;28;20075;-71
2022/10/29 08:31:54;;;;;;;0.20;0.20;;;;;;;;;;5078284;28;20556;-71
2022/10/29 08:34:20;;;;;;;0.10;0.10;;;;;;;;;;5078456;28;20048;-71
2022/10/29 08:36:46;;;;;;;0.10;0.10;;;;;;;;;;5082614;28;20040;-71
2022/10/29 08:39:12;;;;;;;0.13;0.13;;;;;;;;;;5084301;28;20047;-71
2022/10/29 08:41:58;;;;;;;0.20;0.20;;;;;;;;;;5080102;28;20040;-71
2022/10/29 08:44:39;;;;;;;0.10;0.10;;;;;;;;;;5079577;28;20048;-71
2022/10/29 08:47:22;;;;;;;0.10;0.10;;;;;;;;;;5084932;28;20052;-71
2022/10/29 08:50:02;;;;;;;0.20;0.20;;;;;;;;;;5078807;28;20079;-71
2022/10/29 08:52:29;;;;;;;0.20;0.20;;;;;;;;;;5083246;28;20047;-71
2022/10/29 08:55:15;;;;;;;0.13;0.13;;;;;;;;;;5085084;28;20035;-71
2022/10/29 08:57:43;;;;;;;0.10;0.10;;;;;;;;;;5071564;28;20759;-71
2022/10/29 09:00:15;;;;;;;0.20;0.20;;;;;;;;;;5080922;28;20437;-71
2022/10/29 09:02:41;;;;;;;0.10;0.10;;;;;;;;;;5081158;28;20043;-69
2022/10/29 09:05:18;;;;;;;0.10;0.10;;;;;;;;;;5088416;28;20044;-71
2022/10/29 09:08:02;;;;;;;0.10;0.10;;;;;;;;;;5075803;28;20549;-70
2022/10/29 09:10:32;;;;;;;0.20;0.20;;;;;;;;;;5083024;28;20175;-70
2022/10/29 09:13:09;;;;;;;0.52;0.32;;;;;;;;;;5083572;28;20037;-71
2022/10/29 09:15:50;;;;;;;0.10;0.10;;;;;;;;;;5084306;28;20036;-70
2022/10/29 09:18:35;;;;;;;0.10;0.10;;;;;;;;;;5081522;28;20051;-70
2022/10/29 09:21:01;;;;;;;0.13;0.13;;;;;;;;;;5083139;28;20118;-70
2022/10/29 09:23:35;;;;;;;0.10;0.10;;;;;;;;;;5089375;28;20487;-70
2022/10/29 09:26:02;;;;;;;0.20;0.20;;;;;;;;;;5076486;28;20064;-71
2022/10/29 09:28:55;;;;;;;0.20;0.20;;;;;;;;;;5073082;28;20423;-70
2022/10/29 09:31:30;;;;;;;0.10;0.10;;;;;;;;;;5076715;28;20741;-71
2022/10/29 09:34:05;;;;;;;0.10;0.10;;;;;;;;;;5080452;28;20036;-70
2022/10/29 09:36:31;;;;;;;0.20;0.20;;;;;;;;;;5082664;28;20541;-70
2022/10/29 09:38:57;;;;;;;0.20;0.20;;;;;;;;;;5082923;28;20050;-71
2022/10/29 09:41:25;;;;;;;0.10;0.10;;;;;;;;;;5077335;28;20044;-71
2022/10/29 09:43:57;;;;;;;0.10;0.10;;;;;;;;;;5103809;27;20052;-71
2022/10/29 09:46:23;;;;;;;0.20;0.20;;;;;;;;;;5085293;28;20036;-71
2022/10/29 09:49:01;;;;;;;0.10;0.10;;;;;;;;;;5080562;28;20055;-70
2022/10/29 09:51:33;;;;;;;0.20;0.20;;;;;;;;;;5086545;28;20055;-70
2022/10/29 09:53:59;;;;;;;0.10;0.10;;;;;;;;;;5086678;28;20048;-70
2022/10/29 09:56:25;;;;;;;0.13;0.13;;;;;;;;;;5073403;28;20056;-71
2022/10/29 09:58:54;;;;;;;0.10;0.10;;;;;;;;;;5084501;28;20084;-71
2022/10/29 10:01:20;;;;;;;0.20;0.20;;;;;;;;;;5076377;28;20048;-71
2022/10/29 10:03:48;;;;;;;0.20;0.20;;;;;;;;;;5075374;28;20078;-72
2022/10/29 10:06:15;;;;;;;0.20;0.20;;;;;;;;;;5075941;28;20052;-73
2022/10/29 10:09:00;;;;;;;0.20;0.20;;;;;;;;;;5078597;28;20043;-71
2022/10/29 10:11:43;;;;;;;0.20;0.20;;;;;;;;;;5086772;28;20135;-71
2022/10/29 10:14:20;;;;;;;0.20;0.20;;;;;;;;;;5078716;28;20051;-71
2022/10/29 10:16:46;;;;;;;0.17;0.17;;;;;;;;;;5088693;28;20104;-72
2022/10/29 10:19:26;;;;;;;0.20;0.20;;;;;;;;;;5080634;28;20461;-71
2022/10/29 10:21:57;;;;;;;0.20;0.20;;;;;;;;;;5079548;28;20044;-71
2022/10/29 10:24:34;;;;;;;0.17;0.17;;;15.50;99.90;;;;;;5078633;28;20036;-71
2022/10/29 10:27:06;;;;;;;0.13;0.13;;;15.50;99.90;;;;;;5074893;28;20419;-71
2022/10/29 10:29:32;;;;;;;0.20;0.20;;;15.50;99.90;;;;;;5074324;28;20052;-72
2022/10/29 10:31:57;;;;;;;0.20;0.20;;;15.60;99.90;;;;;;5079548;28;20420;-71
2022/10/29 10:34:25;;;;;;;0.20;0.20;;;15.60;99.90;;;;;;5071575;28;20047;-71
2022/10/29 10:36:54;;;;;;;0.20;0.20;;;15.70;99.90;;;;;;5086353;28;20399;-71
2022/10/29 10:39:24;;;;;;;0.20;0.20;;;15.80;99.90;;;;;;5083732;28;20522;-71
2022/10/29 10:41:50;;;;;;;0.20;0.20;;;15.80;99.90;;;;;;5086565;28;20036;-72
2022/10/29 10:44:19;;;;;;;0.20;0.20;;;15.90;99.90;;;;;;5087850;28;20036;-71
2022/10/29 10:46:46;;;;;;;0.20;0.20;;;16.00;99.90;;;;;;5087009;28;20086;-71
2022/10/29 10:49:29;;;;;;;0.20;0.20;;;16.00;99.90;;;;;;5084313;28;20044;-72
2022/10/29 10:51:56;;;;;;;0.10;0.10;;;16.10;99.90;;;;;;5068856;28;20367;-71
2022/10/29 10:54:37;;;;;;;0.10;0.10;;;16.10;99.90;;;;;;5102479;28;20448;-71
2022/10/29 10:57:09;;;;;;;0.20;0.20;;;16.10;99.90;;;;;;5086555;28;20487;-72
2022/10/29 10:59:56;;;;;;;;;;;16.10;99.90;;;;;;5089558;28;20127;-72
2022/10/29 11:02:32;;;;;;;0.20;0.20;;;16.10;99.90;;;;;;5093754;28;20413;-72
2022/10/29 11:05:07;;;;;;;0.20;0.20;;;16.20;99.90;;;;;;5088065;28;20256;-72
2022/10/29 11:07:37;;;;;;;0.20;0.20;;;16.30;99.90;;;;;;5084598;28;20043;-72
2022/10/29 11:10:06;;;;;;;0.20;0.20;;;16.40;99.90;;;;;;5093244;28;20487;-71
2022/10/29 11:12:44;;;;;;;0.20;0.20;;;16.50;99.90;;;;;;5089523;28;20040;-72
2022/10/29 11:15:28;;;;;;;0.20;0.20;;;16.50;99.90;;;;;;5089741;28;20051;-72
2022/10/29 11:18:10;;;;;;;0.20;0.20;;;16.50;99.90;;;;;;5097227;28;20047;-72
2022/10/29 11:20:38;;;;;;;0.20;0.20;;;16.60;99.90;;;;;;5100024;28;20040;-72
2022/10/29 11:23:24;;;;;;;0.10;0.10;;;16.70;99.90;;;;;;5098430;28;20055;-72
2022/10/29 11:26:01;;;;;;;0.20;0.20;;;16.80;99.90;;;;;;5092501;28;20036;-72
2022/10/29 11:29:08;;;;;;;0.20;0.20;;;16.80;99.90;;;;;;5083811;28;20532;-72
2022/10/29 11:31:57;;;;;;;0.20;0.20;;;16.90;99.90;;;;;;5069930;28;20051;-72
2022/10/29 11:35:09;;;;;;;0.20;0.20;;;17.00;99.90;;;;;;5090753;28;20056;-71
2022/10/29 11:37:56;;;;;;;0.10;0.10;;;17.10;99.90;;;;;;5035014;28;20075;-72
2022/10/29 11:40:40;;;;;;;0.20;0.20;;;17.10;99.90;;;;;;5091359;28;20040;-72
2022/10/29 11:43:16;;;;;;;0.20;0.20;;;17.20;99.90;;;;;;5071441;28;20052;-72
2022/10/29 11:45:44;;;;;;;0.20;0.20;;;17.30;99.90;;;;;;5077724;28;20051;-72
2022/10/29 11:48:17;;;;;;;0.20;0.20;;;17.40;99.90;;;;;;5090606;28;20052;-72
2022/10/29 11:51:18;;;;;;;0.25;0.25;;;17.50;99.90;;;;;;5093038;28;20062;-72
2022/10/29 11:54:07;;;;;;;0.20;0.20;;;17.50;99.90;;;;;;5086773;28;20056;-72
2022/10/29 11:56:55;;;;;;;0.20;0.20;;;17.50;99.90;;;;;;5090021;28;20052;-72
2022/10/29 11:59:48;;;;;;;0.20;0.20;;;17.60;99.90;;;;;;5091777;28;21131;-73
2022/10/29 12:02:24;;;;;;;0.20;0.20;;;17.60;99.90;;;;;;5091600;28;20044;-72
2022/10/29 12:05:08;;;;;;;0.20;0.20;;;17.70;99.90;;;;;;5092540;28;20510;-72
2022/10/29 12:07:39;;;;;;;0.20;0.20;;;17.80;99.90;;;;;;5088561;28;20498;-72
2022/10/29 12:10:13;;;;;;;0.20;0.20;;;17.80;99.90;;;;;;5089800;28;20044;-72
2022/10/29 12:13:06;;;;;;;0.20;0.20;;;17.90;99.90;;;;;;5076730;28;20119;-72
2022/10/29 12:15:49;;;;;;;0.20;0.20;;;17.80;99.90;;;;;;5078974;28;20074;-72
2022/10/29 12:18:20;;;;;;;0.20;0.20;;;17.80;99.90;;;;;;5091733;28;20062;-72
2022/10/29 12:21:05;;;;;;;0.20;0.20;;;17.80;99.90;;;;;;5091091;28;20131;-72
2022/10/29 12:23:55;;;;;;;0.20;0.20;;;17.70;99.90;;;;;;5091618;28;20038;-72
2022/10/29 12:26:29;;;;;;;0.20;0.20;;;17.70;99.90;;;;;;5071326;28;20051;-72
2022/10/29 12:29:25;;;;;;;0.20;0.20;;;17.70;99.90;;;;;;5078127;28;20134;-72
2022/10/29 12:31:55;;;;;;;0.20;0.20;;;17.70;99.90;;;;;;5090242;28;20044;-72
2022/10/29 12:34:48;;;;;;;0.20;0.20;;;17.80;99.90;;;;;;5091607;28;20524;-72
2022/10/29 12:37:43;;;;;;;0.20;0.20;;;17.90;99.90;;;;;;5070855;28;20052;-73
2022/10/29 12:40:33;;;;;;;0.20;0.20;;;18.00;99.90;;;;;;5086739;28;20127;-73
2022/10/29 12:43:04;;;;;;;0.20;0.20;;;18.00;99.90;;;;;;5085252;28;20080;-72
2022/10/29 12:45:44;;;;;;;0.20;0.20;;;18.00;99.90;;;;;;5088669;28;20052;-73
2022/10/29 12:48:24;;;;;;;0.20;0.20;;;18.20;99.90;;;;;;5069770;28;20147;-73
2022/10/29 12:50:57;;;;;;;0.20;0.20;;;18.20;99.90;;;;;;5089452;28;20052;-73
2022/10/29 12:53:45;;;;;;;0.20;0.20;;;18.40;99.90;;;;;;5091162;28;20565;-72
2022/10/29 12:56:12;;;;;;;0.20;0.20;;;18.60;99.90;;;;;;5089946;28;20052;-73
2022/10/29 12:58:44;;;;;;;0.20;0.20;;;18.80;99.90;;;;;;5088265;28;20059;-73
2022/10/29 13:01:32;;;;;;;0.20;0.20;;;19.20;99.90;;;;;;5089512;28;20137;-72
2022/10/29 13:04:01;;;;;;;0.55;0.20;;;;;;;;;;5076777;28;20546;-73
2022/10/29 13:06:42;;;;;;;0.20;0.20;;;;;;;;;;5090055;28;20406;-72
2022/10/29 13:09:33;;;;;;;0.20;0.20;;;;;;;;;;5089306;28;20082;-73
2022/10/29 13:12:08;;;;;;;0.20;0.20;;;;;;;;;;5066269;28;20052;-72
2022/10/29 13:14:53;;;;;;;0.20;0.20;;;;;;;;;;5087724;28;20043;-72
2022/10/29 13:17:27;;;;;;;0.20;0.20;;;;;;;;;;5082621;28;20403;-72
2022/10/29 13:19:53;;;;;;;0.20;0.20;;;;;;;;;;5088659;28;20048;-73
2022/10/29 13:22:30;;;;;;;0.20;0.20;;;;;;;;;;5090696;28;20058;-73
2022/10/29 13:25:15;;;;;;;0.20;0.20;;;;;;;;;;5090397;28;20039;-73
2022/10/29 13:27:41;;;;;;;0.20;0.20;;;;;;;;;;5089300;28;20101;-72
2022/10/29 13:30:27;;;;;;;0.20;0.20;;;;;;;;;;5082532;28;20044;-73
2022/10/29 13:32:53;;;;;;;0.25;0.25;;;;;;;;;;5089480;28;20044;-72
2022/10/29 13:35:20;;;;;;;0.20;0.20;;;;;;;;;;5090688;28;20044;-72